Time;durP1;ratioP1;P1;durP2;ratioP2;P2;SDS_P1;SDS_P2;PMS_P1;PMS_P2;Temp;Humidity;BMP_temperature;BMP_pressure;BME280_temperature;BME280_humidity;BME280_pressure;Samples;Min_cycle;Max_cycle;Signal;HPM_P1;HPM_P2
2021/03/03 00:01:43;;;;;;;;;;;22.50;51.30;;;;;;5061661;28;20308;-66
2021/03/03 00:04:09;;;;;;;;;;;22.50;51.30;;;;;;5104283;28;20277;-65
2021/03/03 00:06:34;;;;;;;;;;;22.50;51.60;;;;;;5058593;28;20380;-66
2021/03/03 00:09:00;;;;;;;;;;;22.50;51.30;;;;;;5072325;28;19916;-66
2021/03/03 00:11:26;;;;;;;;;;;22.50;51.30;;;;;;5037961;28;19912;-66
2021/03/03 00:13:52;;;;;;;;;;;22.50;51.30;;;;;;5091243;28;19912;-66
2021/03/03 00:16:18;;;;;;;;;;;22.50;51.30;;;;;;5091549;28;20367;-67
2021/03/03 00:18:44;;;;;;;;;;;22.50;51.30;;;;;;5076650;28;19917;-66
2021/03/03 00:21:09;;;;;;;;;;;22.50;51.30;;;;;;5061836;28;19911;-66
2021/03/03 00:23:35;;;;;;;;;;;22.50;51.30;;;;;;5091639;28;19994;-66
2021/03/03 00:26:01;;;;;;;;;;;22.40;51.20;;;;;;5073342;28;20387;-66
2021/03/03 00:28:27;;;;;;;;;;;22.50;51.30;;;;;;5076489;28;19909;-66
2021/03/03 00:30:53;;;;;;;;;;;22.40;51.20;;;;;;5053037;28;19904;-66
2021/03/03 00:33:20;;;;;;;;;;;22.40;51.20;;;;;;5077644;28;19943;-66
2021/03/03 00:35:45;;;;;;;;;;;22.40;51.30;;;;;;5072335;28;20057;-66
2021/03/03 00:38:11;;;;;;;;;;;22.50;51.40;;;;;;5053424;28;19962;-66
2021/03/03 00:40:37;;;;;;;;;;;22.40;51.30;;;;;;5071299;28;19952;-66
2021/03/03 00:43:03;;;;;;;;;;;22.40;51.30;;;;;;5064059;28;19995;-65
2021/03/03 00:45:29;;;;;;;;;;;22.40;51.30;;;;;;5073217;28;20361;-64
2021/03/03 00:47:54;;;;;;;;;;;22.40;51.40;;;;;;5090659;28;20361;-66
2021/03/03 00:50:21;;;;;;;;;;;22.40;51.40;;;;;;5061254;28;19909;-65
2021/03/03 00:52:52;;;;;;;;;;;22.40;51.40;;;;;;5064229;28;19908;-65
2021/03/03 00:55:20;;;;;;;;;;;22.40;51.40;;;;;;5073982;28;19912;-65
2021/03/03 00:57:46;;;;;;;;;;;22.40;51.40;;;;;;5101163;28;19908;-66
2021/03/03 01:00:18;;;;;;;;;;;22.40;51.40;;;;;;5079713;28;19912;-66
2021/03/03 01:02:46;;;;;;;;;;;22.40;51.50;;;;;;5067749;28;19963;-67
2021/03/03 01:05:13;;;;;;;;;;;22.40;51.50;;;;;;5072833;28;19923;-65
2021/03/03 01:07:41;;;;;;;;;;;22.30;51.40;;;;;;5092809;28;20007;-66
2021/03/03 01:10:08;;;;;;;;;;;22.40;51.50;;;;;;5083832;28;19909;-66
2021/03/03 01:12:34;;;;;;;;;;;22.40;51.50;;;;;;5047499;28;19911;-65
2021/03/03 01:15:04;;;;;;;;;;;22.40;51.50;;;;;;5054871;28;19912;-64
2021/03/03 01:17:30;;;;;;;;;;;22.40;51.50;;;;;;5039904;28;19947;-65
2021/03/03 01:19:56;;;;;;;;;;;22.30;51.50;;;;;;5067367;28;19911;-60
2021/03/03 01:22:22;;;;;;;;;;;22.30;51.50;;;;;;5088209;28;19915;-60
2021/03/03 01:24:48;;;;;;;;;;;22.30;51.50;;;;;;5061424;28;19935;-60
2021/03/03 01:27:14;;;;;;;;;;;22.30;51.50;;;;;;5077606;28;19962;-60
2021/03/03 01:29:39;;;;;;;;;;;22.40;51.60;;;;;;5076975;28;20207;-60
2021/03/03 01:32:05;;;;;;;;;;;22.30;51.50;;;;;;5076060;28;19915;-61
2021/03/03 01:34:32;;;;;;;;;;;22.30;51.60;;;;;;5089416;28;19912;-60
2021/03/03 01:36:57;;;;;;;;;;;22.30;51.60;;;;;;5093704;28;19908;-60
2021/03/03 01:39:23;;;;;;;;;;;22.30;51.60;;;;;;5077498;28;19922;-61
2021/03/03 01:41:49;;;;;;;;;;;22.30;51.60;;;;;;5094782;28;19908;-61
2021/03/03 01:44:15;;;;;;;;;;;22.30;51.60;;;;;;5095768;28;19907;-60
2021/03/03 01:46:41;;;;;;;;;;;22.30;51.60;;;;;;5072153;28;19912;-60
2021/03/03 01:49:07;;;;;;;;;;;22.20;51.60;;;;;;5059564;28;19938;-61
2021/03/03 01:51:33;;;;;;;;;;;22.20;51.60;;;;;;5084269;28;20346;-62
2021/03/03 01:53:59;;;;;;;;;;;22.20;51.60;;;;;;5085014;28;19916;-61
2021/03/03 01:56:25;;;;;;;;;;;22.20;51.70;;;;;;5075649;28;20278;-61
2021/03/03 01:58:51;;;;;;;;;;;22.20;51.70;;;;;;5075453;28;19908;-60
2021/03/03 02:01:17;;;;;;;;;;;22.20;51.60;;;;;;5075442;28;19918;-60
2021/03/03 02:03:43;;;;;;;;;;;22.20;51.70;;;;;;5107813;28;20317;-60
2021/03/03 02:06:13;;;;;;;;;;;22.20;51.70;;;;;;5102904;28;19930;-60
2021/03/03 02:08:47;;;;;;;;;;;22.20;51.70;;;;;;5093950;28;19908;-61
2021/03/03 02:11:18;;;;;;;;;;;22.20;51.70;;;;;;5094305;28;20318;-61
2021/03/03 02:13:50;;;;;;;;;;;22.20;51.70;;;;;;5077196;28;19949;-61
2021/03/03 02:16:17;;;;;;;;;;;22.20;51.70;;;;;;5075292;28;19908;-60
2021/03/03 02:18:43;;;;;;;;;;;22.20;51.80;;;;;;5056942;28;20263;-61
2021/03/03 02:21:16;;;;;;;;;;;22.20;51.70;;;;;;5063381;28;20092;-61
2021/03/03 02:23:42;;;;;;;;;;;22.10;51.70;;;;;;5062590;28;19909;-59
2021/03/03 02:26:08;;;;;;;;;;;22.20;51.80;;;;;;5073831;28;19935;-61
2021/03/03 02:28:35;;;;;;;;;;;22.20;51.80;;;;;;5085600;28;20353;-61
2021/03/03 02:31:02;;;;;;;;;;;22.10;51.80;;;;;;5094925;28;19931;-60
2021/03/03 02:33:29;;;;;;;;;;;22.10;51.80;;;;;;5086056;28;19912;-62
2021/03/03 02:35:55;;;;;;;;;;;22.10;51.80;;;;;;5075613;28;19908;-61
2021/03/03 02:38:21;;;;;;;;;;;22.10;51.80;;;;;;5063957;28;19908;-61
2021/03/03 02:40:47;;;;;;;;;;;22.10;51.80;;;;;;5092860;28;19915;-61
2021/03/03 02:43:17;;;;;;;;;;;22.10;51.80;;;;;;5090134;28;19984;-61
2021/03/03 02:45:44;;;;;;;;;;;22.10;51.80;;;;;;5094581;28;19999;-61
2021/03/03 02:48:10;;;;;;;;;;;22.10;51.80;;;;;;5091223;28;19954;-61
2021/03/03 02:50:36;;;;;;;;;;;22.10;51.90;;;;;;5077346;28;19915;-61
2021/03/03 02:53:02;;;;;;;;;;;22.10;51.90;;;;;;5080026;28;19962;-61
2021/03/03 02:55:29;;;;;;;;;;;22.10;51.90;;;;;;5087906;28;19916;-61
2021/03/03 02:57:55;;;;;;;;;;;22.10;51.90;;;;;;5089090;28;19944;-61
2021/03/03 03:00:25;;;;;;;;;;;22.10;51.90;;;;;;5088577;28;19947;-61
2021/03/03 03:03:03;;;;;;;;;;;22.50;52.10;;;;;;5094644;28;19912;-61
2021/03/03 03:05:30;;;;;;;;;;;22.10;51.90;;;;;;5073993;28;19920;-61
2021/03/03 03:07:57;;;;;;;;;;;22.10;51.90;;;;;;5073861;28;19915;-60
2021/03/03 03:10:24;;;;;;;;;;;22.10;52.00;;;;;;5093204;28;19904;-61
2021/03/03 03:12:52;;;;;;;;;;;22.00;51.90;;;;;;5090569;28;19908;-61
2021/03/03 03:15:19;;;;;;;;;;;22.10;52.00;;;;;;5080425;28;20281;-61
2021/03/03 03:17:46;;;;;;;;;;;22.00;51.90;;;;;;5092115;28;19904;-61
2021/03/03 03:20:14;;;;;;;;;;;22.00;51.90;;;;;;5074735;28;19909;-62
2021/03/03 03:22:40;;;;;;;;;;;22.00;51.90;;;;;;5084883;28;19908;-61
2021/03/03 03:25:07;;;;;;;;;;;22.00;51.90;;;;;;5066697;28;19915;-61
2021/03/03 03:27:33;;;;;;;;;;;22.00;51.90;;;;;;5093774;28;19907;-61
2021/03/03 03:29:59;;;;;;;;;;;22.00;52.00;;;;;;5056862;28;20316;-61
2021/03/03 03:32:26;;;;;;;;;;;22.00;52.00;;;;;;5089194;28;20289;-61
2021/03/03 03:34:53;;;;;;;;;;;22.00;52.00;;;;;;5080080;28;20014;-61
2021/03/03 03:37:19;;;;;;;;;;;22.00;52.00;;;;;;5073309;28;19956;-60
2021/03/03 03:39:45;;;;;;;;;;;21.90;52.00;;;;;;5073455;28;19940;-61
2021/03/03 03:42:12;;;;;;;;;;;22.00;52.00;;;;;;5074781;28;19912;-61
2021/03/03 03:44:38;;;;;;;;;;;22.00;52.00;;;;;;5091637;28;19930;-61
2021/03/03 03:47:04;;;;;;;;;;;22.00;52.00;;;;;;5093332;28;19908;-62
2021/03/03 03:49:31;;;;;;;;;;;21.90;52.00;;;;;;5085157;28;19957;-61
2021/03/03 03:51:56;;;;;;;;;;;21.90;52.00;;;;;;5079389;28;19939;-62
2021/03/03 03:54:22;;;;;;;;;;;21.90;52.00;;;;;;5087366;28;19924;-60
2021/03/03 03:56:48;;;;;;;;;;;21.90;52.00;;;;;;5076867;28;19969;-61
2021/03/03 03:59:14;;;;;;;;;;;21.90;52.00;;;;;;5073560;28;19951;-61
2021/03/03 04:01:40;;;;;;;;;;;21.90;52.00;;;;;;5084743;28;19912;-60
2021/03/03 04:04:05;;;;;;;;;;;21.90;52.00;;;;;;5093217;28;19922;-61
2021/03/03 04:06:31;;;;;;;;;;;21.90;52.00;;;;;;5065352;28;19919;-60
2021/03/03 04:08:57;;;;;;;;;;;21.90;52.00;;;;;;5055216;28;19908;-61
2021/03/03 04:11:23;;;;;;;;;;;21.90;52.00;;;;;;5074295;28;19911;-61
2021/03/03 04:13:49;;;;;;;;;;;21.90;52.10;;;;;;5089437;28;20369;-66
2021/03/03 04:16:14;;;;;;;;;;;21.90;52.10;;;;;;5088617;28;19987;-66
2021/03/03 04:18:40;;;;;;;;;;;21.90;52.10;;;;;;5071337;28;19975;-66
2021/03/03 04:21:06;;;;;;;;;;;21.90;52.10;;;;;;5074481;28;19908;-66
2021/03/03 04:23:32;;;;;;;;;;;21.90;52.10;;;;;;5080528;28;19916;-66
2021/03/03 04:25:58;;;;;;;;;;;21.90;52.10;;;;;;5076802;28;20089;-65
2021/03/03 04:28:23;;;;;;;;;;;21.90;52.10;;;;;;5072969;28;20350;-65
2021/03/03 04:30:49;;;;;;;;;;;21.80;52.10;;;;;;5073671;28;19923;-65
2021/03/03 04:33:15;;;;;;;;;;;21.80;52.00;;;;;;5087143;28;19915;-66
2021/03/03 04:35:41;;;;;;;;;;;21.90;52.10;;;;;;5071081;28;19908;-65
2021/03/03 04:38:09;;;;;;;;;;;21.80;52.10;;;;;;5073186;28;19908;-65
2021/03/03 04:40:35;;;;;;;;;;;21.80;52.00;;;;;;5071250;28;19923;-65
2021/03/03 04:43:01;;;;;;;;;;;21.80;52.10;;;;;;5071651;28;19908;-65
2021/03/03 04:45:27;;;;;;;;;;;21.80;52.10;;;;;;5082683;28;20274;-65
2021/03/03 04:47:52;;;;;;;;;;;21.80;52.10;;;;;;5080868;28;20062;-65
2021/03/03 04:50:18;;;;;;;;;;;21.80;52.10;;;;;;5088250;28;19919;-65
2021/03/03 04:52:44;;;;;;;;;;;21.80;52.10;;;;;;5086873;28;19915;-66
2021/03/03 04:55:10;;;;;;;;;;;21.70;52.00;;;;;;5063571;28;19912;-66
2021/03/03 04:57:36;;;;;;;;;;;21.80;52.10;;;;;;5074829;28;19943;-66
2021/03/03 05:00:03;;;;;;;;;;;21.70;52.10;;;;;;5093598;28;19965;-66
2021/03/03 05:02:29;;;;;;;;;;;21.70;52.10;;;;;;5093195;28;19915;-66
2021/03/03 05:04:54;;;;;;;;;;;21.70;52.10;;;;;;5087139;28;19937;-65
2021/03/03 05:07:20;;;;;;;;;;;21.80;52.20;;;;;;5086904;28;20241;-64
2021/03/03 05:09:46;;;;;;;;;;;21.70;52.10;;;;;;5082633;28;19912;-64
2021/03/03 05:12:12;;;;;;;;;;;21.70;52.10;;;;;;5085687;28;19915;-64
2021/03/03 05:14:38;;;;;;;;;;;21.70;52.10;;;;;;5067030;28;19997;-64
2021/03/03 05:17:04;;;;;;;;;;;21.70;52.10;;;;;;5094603;28;19908;-64
2021/03/03 05:19:29;;;;;;;;;;;21.70;52.10;;;;;;5084954;28;19909;-65
2021/03/03 05:21:55;;;;;;;;;;;21.70;52.10;;;;;;5085057;28;20010;-65
2021/03/03 05:24:21;;;;;;;;;;;21.90;52.20;;;;;;5076061;28;19944;-65
2021/03/03 05:26:47;;;;;;;;;;;21.70;52.10;;;;;;5088274;28;20743;-65
2021/03/03 05:29:13;;;;;;;;;;;21.60;52.10;;;;;;5065203;28;19908;-65
2021/03/03 05:31:39;;;;;;;;;;;21.70;52.20;;;;;;5093878;28;19960;-65
2021/03/03 05:34:05;;;;;;;;;;;21.60;52.10;;;;;;5084866;28;20389;-65
2021/03/03 05:36:30;;;;;;;;;;;21.60;52.10;;;;;;5073961;28;19904;-65
2021/03/03 05:38:56;;;;;;;;;;;21.70;52.20;;;;;;5084970;28;19912;-65
2021/03/03 05:41:23;;;;;;;;;;;21.60;52.20;;;;;;5093490;28;19915;-65
2021/03/03 05:43:49;;;;;;;;;;;21.60;52.20;;;;;;5090292;28;19915;-65
2021/03/03 05:46:16;;;;;;;;;;;21.60;52.20;;;;;;5078314;28;19915;-65
2021/03/03 05:48:43;;;;;;;;;;;21.60;52.20;;;;;;5078641;28;19904;-65
2021/03/03 05:51:09;;;;;;;;;;;21.60;52.20;;;;;;5076844;28;19977;-65
2021/03/03 05:53:35;;;;;;;;;;;21.60;52.20;;;;;;5077451;28;19916;-65
2021/03/03 05:56:05;;;;;;;;;;;21.60;52.20;;;;;;5073671;28;19904;-66
2021/03/03 05:58:31;;;;;;;;;;;21.60;52.20;;;;;;5079169;28;19996;-66
2021/03/03 06:00:58;;;;;;;;;;;21.60;52.20;;;;;;5074015;28;20011;-65
2021/03/03 06:03:24;;;;;;;;;;;21.60;52.20;;;;;;5075091;28;20029;-66
2021/03/03 06:05:50;;;;;;;;;;;21.60;52.20;;;;;;5108069;28;19907;-65
2021/03/03 06:08:17;;;;;;;;;;;21.60;52.20;;;;;;5093214;28;19908;-67
2021/03/03 06:10:43;;;;;;;;;;;21.60;52.40;;;;;;5077411;28;19996;-66
2021/03/03 06:13:10;;;;;;;;;;;21.60;52.20;;;;;;5091965;28;19908;-66
2021/03/03 06:15:36;;;;;;;;;;;21.60;52.20;;;;;;5092769;28;20376;-66
2021/03/03 06:18:04;;;;;;;;;;;21.50;52.20;;;;;;5093461;28;20192;-66
2021/03/03 06:20:36;;;;;;;;;;;21.60;52.20;;;;;;5089955;28;19924;-66
2021/03/03 06:23:12;;;;;;;;;;;21.50;52.20;;;;;;5063913;28;19908;-66
2021/03/03 06:25:38;;;;;;;;;;;21.50;52.30;;;;;;5093578;28;19962;-66
2021/03/03 06:28:04;;;;;;;;;;;21.60;52.20;;;;;;5093595;28;20002;-66
2021/03/03 06:30:30;;;;;;;;;;;21.50;52.20;;;;;;5088502;28;19919;-66
2021/03/03 06:32:57;;;;;;;;;;;21.50;52.20;;;;;;5092809;28;19908;-67
2021/03/03 06:35:34;;;;;;;;;;;21.50;52.30;;;;;;5085375;28;20370;-66
2021/03/03 06:38:00;;;;;;;;;;;21.50;52.30;;;;;;5086081;28;19908;-66
2021/03/03 06:40:26;;;;;;;;;;;21.50;52.30;;;;;;5085087;28;19950;-66
2021/03/03 06:42:53;;;;;;;;;;;21.50;52.30;;;;;;5074049;28;19916;-66
2021/03/03 06:45:31;;;;;;;;;;;21.50;52.30;;;;;;5088468;28;19912;-66
2021/03/03 06:47:58;;;;;;;;;;;21.50;52.30;;;;;;5085684;28;19908;-62
2021/03/03 06:50:34;;;;;;;;;;;21.50;52.30;;;;;;5062221;28;19908;-62
2021/03/03 06:53:00;;;;;;;;;;;21.50;52.30;;;;;;5094445;28;19908;-60
2021/03/03 06:55:42;;;;;;;;;;;21.50;52.20;;;;;;5084090;28;19909;-61
2021/03/03 06:58:23;;;;;;;;;;;21.50;52.20;;;;;;5086126;28;19912;-61
2021/03/03 07:00:50;;;;;;;;;;;21.50;52.20;;;;;;5082046;28;19915;-61
2021/03/03 07:03:42;;;;;;;;;;;21.40;52.20;;;;;;5091879;28;19916;-61
2021/03/03 07:06:08;;;;;;;;;;;21.40;52.20;;;;;;5083077;28;20319;-61
2021/03/03 07:08:33;;;;;;;;;;;21.40;52.20;;;;;;5080654;28;19938;-62
2021/03/03 07:10:59;;;;;;;;;;;21.40;52.20;;;;;;5081566;28;19916;-62
2021/03/03 07:13:38;;;;;;;;;;;21.40;52.30;;;;;;5080429;28;20385;-67
2021/03/03 07:16:05;;;;;;;;;;;21.40;52.20;;;;;;5075180;28;19916;-66
2021/03/03 07:18:32;;;;;;;;;;;21.40;52.20;;;;;;5083973;28;20354;-66
2021/03/03 07:20:59;;;;;;;;;;;21.40;52.20;;;;;;5082108;28;19920;-66
2021/03/03 07:23:42;;;;;;;;;;;21.30;52.20;;;;;;5079197;28;19905;-66
2021/03/03 07:26:09;;;;;;;;;;;21.30;52.30;;;;;;5083940;28;20491;-66
2021/03/03 07:28:35;;;;;;;;;;;21.30;52.40;;;;;;5077983;28;19915;-66
2021/03/03 07:31:01;;;;;;;;;;;21.30;52.40;;;;;;5094340;28;19924;-68
2021/03/03 07:33:27;;;;;;;;;;;21.40;52.50;;;;;;5091783;28;19915;-67
2021/03/03 07:35:53;;;;;;;;;;;21.40;52.50;;;;;;5081383;28;19935;-66
2021/03/03 07:38:19;;;;;;;;;;;21.40;52.50;;;;;;5077535;28;19908;-67
2021/03/03 07:40:46;;;;;;;;;;;21.40;52.50;;;;;;5093772;28;19908;-68
2021/03/03 07:43:13;;;;;;;;;;;21.40;52.50;;;;;;5093480;28;19908;-61
2021/03/03 07:45:40;;;;;;;;;;;21.50;52.50;;;;;;5090798;28;19912;-66
2021/03/03 07:48:06;;;;;;;;;;;21.50;52.50;;;;;;5074953;28;19979;-66
2021/03/03 07:50:33;;;;;;;;;;;21.50;52.40;;;;;;5074931;28;20009;-64
2021/03/03 07:52:58;;;;;;;;;;;21.50;52.50;;;;;;5074877;28;20259;-66
2021/03/03 07:55:24;;;;;;;;;;;21.50;52.40;;;;;;5090882;28;20033;-67
2021/03/03 07:57:52;;;;;;;;;;;21.50;52.40;;;;;;5091070;28;19908;-67
2021/03/03 08:00:24;;;;;;;;;;;21.50;52.50;;;;;;5057839;28;19912;-67
2021/03/03 08:02:51;;;;;;;;;;;21.60;52.50;;;;;;5074840;28;19909;-67
2021/03/03 08:05:28;;;;;;;;;;;21.60;52.50;;;;;;5057254;28;19912;-66
2021/03/03 08:08:13;;;;;;;;;;;21.60;52.50;;;;;;5104993;28;19908;-67
2021/03/03 08:10:39;;;;;;;;;;;21.60;52.70;;;;;;5074807;28;19912;-69
2021/03/03 08:13:06;;;;;;;;;;;21.60;52.50;;;;;;5093235;28;19998;-68
2021/03/03 08:15:48;;;;;;;;;;;21.70;52.50;;;;;;5093290;28;20289;-62
2021/03/03 08:18:14;;;;;;;;;;;21.70;52.50;;;;;;5075748;28;19994;-63
2021/03/03 08:21:00;;;;;;;;;;;21.70;52.50;;;;;;5075317;28;19954;-64
2021/03/03 08:23:32;;;;;;;;;;;21.70;52.50;;;;;;5074642;28;19912;-63
2021/03/03 08:25:59;;;;;;;;;;;21.70;52.50;;;;;;5078145;28;19958;-63
2021/03/03 08:28:24;;;;;;;;;;;21.80;52.50;;;;;;5097749;28;20293;-63
2021/03/03 08:31:11;;;;;;;;;;;21.80;52.50;;;;;;5097391;28;19914;-63
2021/03/03 08:33:40;;;;;;;;;;;21.80;52.50;;;;;;5096917;28;19943;-63
2021/03/03 08:36:08;;;;;;;;;;;21.80;52.50;;;;;;5095637;28;19930;-60
2021/03/03 08:38:33;;;;;;;;;;;21.80;52.50;;;;;;5077465;28;19943;-59
2021/03/03 08:41:15;;;;;;;;;;;21.80;52.40;;;;;;5076906;28;19943;-60
2021/03/03 08:43:42;;;;;;;;;;;21.90;52.50;;;;;;5096077;28;19908;-54
2021/03/03 08:46:20;;;;;;;;;;;21.90;52.40;;;;;;5095767;28;20010;-52
2021/03/03 08:48:51;;;;;;;;;;;21.80;52.30;;;;;;5096104;28;20377;-55
2021/03/03 08:51:23;;;;;;;;;;;21.90;52.30;;;;;;5095902;28;19915;-53
2021/03/03 08:53:50;;;;;;;;;;;21.90;52.30;;;;;;5095801;28;19951;-54
2021/03/03 08:56:38;;;;;;;;;;;21.90;52.30;;;;;;5096068;28;19919;-56
2021/03/03 08:59:07;;;;;;;;;;;21.80;52.30;;;;;;5095645;28;19908;-56
2021/03/03 09:01:52;;;;;;;;;;;21.90;52.30;;;;;;5094875;28;19912;-56
2021/03/03 09:04:21;;;;;;;;;;;21.80;52.30;;;;;;5095773;28;19995;-56
2021/03/03 09:06:50;;;;;;;;;;;21.90;52.40;;;;;;5096197;28;19912;-55
2021/03/03 09:09:17;;;;;;;;;;;21.90;52.40;;;;;;5095747;28;20430;-55
2021/03/03 09:11:43;;;;;;;;;;;21.90;52.40;;;;;;5095681;28;19994;-55
2021/03/03 09:14:09;;;;;;;;;;;21.90;52.40;;;;;;5095424;28;20387;-55
2021/03/03 09:16:50;;;;;;;;;;;21.90;52.40;;;;;;5094957;28;20319;-56
2021/03/03 09:19:16;;;;;;;;;;;21.90;52.40;;;;;;5095088;28;19908;-54
2021/03/03 09:21:42;;;;;;;;;;;21.90;52.40;;;;;;5094899;28;20341;-57
2021/03/03 09:24:11;;;;;;;;;;;21.90;52.30;;;;;;5094892;28;19908;-55
2021/03/03 09:26:37;;;;;;;;;;;21.90;52.30;;;;;;5110728;28;20262;-55
2021/03/03 09:29:04;;;;;;;;;;;22.00;52.30;;;;;;5094980;28;19915;-55
2021/03/03 09:31:31;;;;;;;;;;;22.00;52.30;;;;;;5095020;28;19908;-54
2021/03/03 09:33:57;;;;;;;;;;;22.00;52.30;;;;;;5076435;28;20387;-54
2021/03/03 09:36:23;;;;;;;;;;;22.00;52.30;;;;;;5094744;28;19933;-52
2021/03/03 09:38:59;;;;;;;;;;;22.00;52.30;;;;;;5094657;28;19912;-54
2021/03/03 09:41:25;;;;;;;;;;;22.00;52.40;;;;;;5094953;28;19907;-53
2021/03/03 09:44:05;;;;;;;;;;;22.00;52.30;;;;;;5095002;28;19908;-53
2021/03/03 09:47:09;;;;;;;;;;;22.00;52.30;;;;;;5095017;28;19925;-51
2021/03/03 09:49:37;;;;;;;;;;;22.00;52.30;;;;;;5052064;28;19909;-51
2021/03/03 09:52:03;;;;;;;;;;;22.00;52.30;;;;;;5034830;28;20361;-50
2021/03/03 09:54:29;;;;;;;;;;;22.10;52.40;;;;;;5051374;28;20417;-51
2021/03/03 09:57:00;;;;;;;;;;;22.10;52.40;;;;;;5051861;28;19948;-51
2021/03/03 09:59:26;;;;;;;;;;;22.10;52.30;;;;;;5051984;28;19912;-51
2021/03/03 10:01:51;;;;;;;;;;;22.10;52.30;;;;;;5051736;28;19904;-52
2021/03/03 10:04:17;;;;;;;;;;;22.10;52.30;;;;;;5051568;28;19913;-52
2021/03/03 10:06:44;;;;;;;;;;;22.10;52.30;;;;;;5051510;28;20325;-51
2021/03/03 10:09:10;;;;;;;;;;;20.90;51.70;;;;;;5051300;28;19913;-53
2021/03/03 10:11:36;;;;;;;;;;;22.10;52.30;;;;;;5051218;28;19939;-53
2021/03/03 10:14:04;;;;;;;;;;;22.10;52.20;;;;;;5050557;28;20316;-53
2021/03/03 10:16:29;;;;;;;;;;;22.20;52.30;;;;;;5051481;28;20019;-51
2021/03/03 10:18:59;;;;;;;;;;;22.20;52.30;;;;;;5034454;28;20337;-53
2021/03/03 10:21:25;;;;;;;;;;;22.20;52.40;;;;;;5071504;28;19962;-53
2021/03/03 10:23:51;;;;;;;;;;;22.20;52.40;;;;;;5055551;28;19912;-53
2021/03/03 10:26:21;;;;;;;;;;;22.30;52.40;;;;;;5073323;28;19908;-53
2021/03/03 10:28:50;;;;;;;;;;;22.30;52.60;;;;;;5073582;28;20062;-51
2021/03/03 10:31:18;;;;;;;;;;;22.40;52.80;;;;;;5055286;28;20277;-52
2021/03/03 10:33:44;;;;;;;;;;;22.60;52.80;;;;;;5073313;28;20423;-50
2021/03/03 10:36:13;;;;;;;;;;;22.70;52.70;;;;;;5073231;28;19915;-53
2021/03/03 10:38:53;;;;;;;;;;;22.80;52.50;;;;;;5073667;28;20690;-54
2021/03/03 10:41:29;;;;;;;;;;;22.90;52.30;;;;;;5073290;28;20258;-52
2021/03/03 10:43:55;;;;;;;;;;;23.00;52.10;;;;;;5073588;28;20613;-53
2021/03/03 10:46:21;;;;;;;;;;;23.10;51.90;;;;;;5072991;28;19974;-51
2021/03/03 10:48:47;;;;;;;;;;;23.20;51.80;;;;;;5072219;28;19911;-50
2021/03/03 10:51:14;;;;;;;;;;;23.20;51.80;;;;;;5072751;28;19908;-51
2021/03/03 10:53:48;;;;;;;;;;;23.30;51.90;;;;;;5055039;28;20282;-50
2021/03/03 10:56:37;;;;;;;;;;;23.30;52.00;;;;;;5072753;28;19912;-49
2021/03/03 10:59:09;;;;;;;;;;;23.40;52.00;;;;;;5057418;28;19909;-50
2021/03/03 11:01:46;;;;;;;;;;;23.50;52.00;;;;;;5072385;28;19915;-49
2021/03/03 11:04:12;;;;;;;;;;;23.50;52.00;;;;;;5072331;28;19968;-50
2021/03/03 11:06:39;;;;;;;;;;;23.60;52.00;;;;;;5072821;28;20804;-49
2021/03/03 11:09:06;;;;;;;;;;;23.70;52.10;;;;;;5072434;28;20351;-51
2021/03/03 11:11:32;;;;;;;;;;;23.70;51.90;;;;;;5072523;28;19986;-50
2021/03/03 11:13:58;;;;;;;;;;;23.90;51.90;;;;;;5072591;28;19947;-51
2021/03/03 11:16:24;;;;;;;;;;;24.00;51.70;;;;;;5072461;28;20314;-54
2021/03/03 11:18:50;;;;;;;;;;;24.10;51.60;;;;;;5072438;28;19955;-52
2021/03/03 11:21:16;;;;;;;;;;;24.10;51.30;;;;;;5072406;28;19915;-51
2021/03/03 11:23:42;;;;;;;;;;;24.10;51.10;;;;;;5072433;28;20285;-51
2021/03/03 11:26:08;;;;;;;;;;;24.20;51.00;;;;;;5072498;28;19961;-52
2021/03/03 11:28:34;;;;;;;;;;;24.10;51.00;;;;;;5072534;28;20006;-49
2021/03/03 11:31:00;;;;;;;;;;;24.10;51.20;;;;;;5072574;28;19999;-50
2021/03/03 11:33:26;;;;;;;;;;;24.10;51.60;;;;;;5072399;28;19931;-51
2021/03/03 11:35:52;;;;;;;;;;;24.20;51.90;;;;;;5071371;28;20366;-50
2021/03/03 11:38:17;;;;;;;;;;;24.30;52.10;;;;;;5072487;28;19904;-50
2021/03/03 11:40:43;;;;;;;;;;;24.60;52.30;;;;;;5071219;28;20316;-53
2021/03/03 11:43:09;;;;;;;;;;;24.80;52.10;;;;;;5054504;28;19958;-51
2021/03/03 11:45:35;;;;;;;;;;;25.10;52.00;;;;;;5054466;28;19954;-51
2021/03/03 11:48:01;;;;;;;;;;;25.30;51.80;;;;;;5072308;28;19915;-51
2021/03/03 11:50:27;;;;;;;;;;;25.60;51.60;;;;;;5072536;28;19915;-50
2021/03/03 11:52:52;;;;;;;;;;;25.90;51.50;;;;;;5072506;28;20295;-51
2021/03/03 11:55:18;;;;;;;;;;;26.10;51.20;;;;;;5072369;28;20725;-51
2021/03/03 11:57:44;;;;;;;;;;;26.30;50.90;;;;;;5072439;28;20053;-50
2021/03/03 12:00:11;;;;;;;;;;;26.50;50.60;;;;;;5072357;28;19913;-51
2021/03/03 12:02:37;;;;;;;;;;;26.70;50.20;;;;;;5086441;28;19911;-52
2021/03/03 12:05:03;;;;;;;;;;;26.90;50.00;;;;;;5092035;28;20382;-52
2021/03/03 12:07:29;;;;;;;;;;;27.10;49.80;;;;;;5092515;28;19919;-50
2021/03/03 12:09:55;;;;;;;;;;;27.30;49.70;;;;;;5092172;28;19908;-50
2021/03/03 12:12:21;;;;;;;;;;;27.50;49.60;;;;;;5092336;28;19915;-53
2021/03/03 12:14:47;;;;;;;;;;;27.80;49.30;;;;;;5091958;28;20437;-51
2021/03/03 12:17:13;;;;;;;;;;;27.90;48.90;;;;;;5092271;28;20003;-52
2021/03/03 12:19:38;;;;;;;;;;;28.10;48.50;;;;;;5091847;28;20016;-52
2021/03/03 12:22:04;;;;;;;;;;;28.20;48.10;;;;;;5092087;28;19915;-49
2021/03/03 12:24:30;;;;;;;;;;;28.30;47.40;;;;;;5091858;28;19904;-51
2021/03/03 12:26:56;;;;;;;;;;;28.30;46.80;;;;;;5091879;28;19915;-51
2021/03/03 12:29:22;;;;;;;;;;;28.20;46.40;;;;;;5091871;28;19912;-50
2021/03/03 12:31:48;;;;;;;;;;;28.00;46.30;;;;;;5092199;28;19910;-51
2021/03/03 12:34:13;;;;;;;;;;;27.80;46.20;;;;;;5092172;28;20285;-50
2021/03/03 12:36:39;;;;;;;;;;;27.50;46.20;;;;;;5074182;28;20336;-50
2021/03/03 12:39:05;;;;;;;;;;;27.30;46.30;;;;;;5092264;28;20002;-50
2021/03/03 12:41:31;;;;;;;;;;;27.00;46.50;;;;;;5092493;28;19912;-52
2021/03/03 12:43:57;;;;;;;;;;;26.70;46.70;;;;;;5092408;28;19904;-52
2021/03/03 12:46:23;;;;;;;;;;;26.40;47.00;;;;;;5092002;28;19908;-49
2021/03/03 12:48:48;;;;;;;;;;;26.30;47.30;;;;;;5091873;28;19908;-50
2021/03/03 12:51:14;;;;;;;;;;;26.10;47.60;;;;;;5092139;28;20398;-49
2021/03/03 12:53:40;;;;;;;;;;;25.90;47.80;;;;;;5091931;28;20300;-49
2021/03/03 12:56:06;;;;;;;;;;;25.80;48.00;;;;;;5091794;28;19966;-51
2021/03/03 12:58:32;;;;;;;;;;;25.60;48.10;;;;;;5073700;28;19904;-49
2021/03/03 13:00:58;;;;;;;;;;;25.50;48.30;;;;;;5091999;28;19919;-50
2021/03/03 13:03:23;;;;;;;;;;;25.40;48.40;;;;;;5091514;28;20305;-51
2021/03/03 13:05:49;;;;;;;;;;;25.30;48.60;;;;;;5091114;28;19970;-51
2021/03/03 13:08:15;;;;;;;;;;;25.10;48.70;;;;;;5073578;28;19907;-50
2021/03/03 13:10:41;;;;;;;;;;;25.10;49.10;;;;;;5092880;28;20353;-51
2021/03/03 13:13:07;;;;;;;;;;;25.00;49.30;;;;;;5095117;28;20273;-51
2021/03/03 13:15:33;;;;;;;;;;;25.00;49.50;;;;;;5095158;28;19916;-51
2021/03/03 13:17:59;;;;;;;;;;;24.90;49.60;;;;;;5095029;28;19957;-50
2021/03/03 13:20:24;;;;;;;;;;;24.90;49.70;;;;;;5095529;28;20420;-50
2021/03/03 13:22:50;;;;;;;;;;;24.90;49.70;;;;;;5095674;28;19911;-53
2021/03/03 13:25:16;;;;;;;;;;;24.90;49.70;;;;;;5095574;28;20365;-52
2021/03/03 13:27:42;;;;;;;;;;;24.90;49.70;;;;;;5095604;28;20762;-53
2021/03/03 13:30:10;;;;;;;;;;;24.90;49.70;;;;;;5095507;28;19908;-52
2021/03/03 13:32:35;;;;;;;;;;;24.90;49.80;;;;;;5095524;28;19911;-51
2021/03/03 13:35:01;;;;;;;;;;;24.90;49.80;;;;;;5095129;28;19912;-51
2021/03/03 13:37:27;;;;;;;;;;;24.90;49.90;;;;;;5095247;28;19943;-52
2021/03/03 13:39:53;;;;;;;;;;;24.80;49.80;;;;;;5094894;28;19908;-50
2021/03/03 13:42:19;;;;;;;;;;;24.80;49.80;;;;;;5095309;28;20426;-51
2021/03/03 13:44:45;;;;;;;;;;;24.80;49.90;;;;;;5094831;28;19926;-52
2021/03/03 13:47:11;;;;;;;;;;;24.80;49.90;;;;;;5095120;28;19961;-51
2021/03/03 13:49:38;;;;;;;;;;;24.70;49.90;;;;;;5076424;28;19908;-50
2021/03/03 13:52:04;;;;;;;;;;;24.70;49.90;;;;;;5093526;28;19908;-51
2021/03/03 13:54:30;;;;;;;;;;;24.70;50.00;;;;;;5094578;28;20367;-51
2021/03/03 13:56:55;;;;;;;;;;;24.70;50.00;;;;;;5076782;28;19999;-51
2021/03/03 13:59:21;;;;;;;;;;;24.70;50.10;;;;;;5094855;28;19912;-51
2021/03/03 14:01:47;;;;;;;;;;;24.70;50.10;;;;;;5094672;28;19939;-49
2021/03/03 14:04:13;;;;;;;;;;;24.80;50.20;;;;;;5094560;28;19912;-51
2021/03/03 14:06:39;;;;;;;;;;;24.80;50.20;;;;;;5076159;28;19935;-50
2021/03/03 14:09:05;;;;;;;;;;;24.90;50.10;;;;;;5094407;28;19908;-50
2021/03/03 14:11:31;;;;;;;;;;;24.90;50.10;;;;;;5076217;28;19907;-50
2021/03/03 14:13:56;;;;;;;;;;;24.90;50.00;;;;;;5094471;28;20380;-50
2021/03/03 14:16:22;;;;;;;;;;;24.90;49.80;;;;;;5094438;28;19912;-50
2021/03/03 14:18:48;;;;;;;;;;;25.00;49.80;;;;;;5094552;28;19978;-51